createdAt,value
2017-09-13T00:01:26.594Z,61.30
2017-09-13T00:03:54.894Z,62.20
2017-09-13T00:06:22.420Z,62.10
2017-09-13T00:08:50.726Z,61.90
2017-09-13T00:11:18.305Z,61.90
2017-09-13T00:13:45.829Z,61.50
2017-09-13T00:16:14.113Z,61.10
2017-09-13T00:18:41.638Z,61.10
2017-09-13T00:21:09.165Z,60.70
2017-09-13T00:23:36.689Z,60.70
2017-09-13T00:26:04.248Z,60.10
2017-09-13T00:28:32.535Z,60.30
2017-09-13T00:31:00.058Z,60.30
2017-09-13T00:33:28.354Z,62.00
2017-09-13T00:35:56.637Z,62.20
2017-09-13T00:38:24.162Z,62.20
2017-09-13T00:40:51.698Z,62.90
2017-09-13T00:43:19.223Z,63.80
2017-09-13T00:45:46.743Z,64.20
2017-09-13T00:48:15.068Z,64.20
2017-09-13T00:50:42.620Z,63.30
2017-09-13T00:53:10.147Z,63.40
2017-09-13T00:55:38.446Z,62.70
2017-09-13T00:58:06.002Z,62.70
2017-09-13T01:00:33.527Z,62.90
2017-09-13T01:03:01.821Z,63.70
2017-09-13T01:05:30.110Z,62.50
2017-09-13T01:07:57.633Z,62.50
2017-09-13T01:10:25.157Z,62.30
2017-09-13T01:12:52.714Z,62.50
2017-09-13T01:15:20.244Z,62.50
2017-09-13T01:17:47.769Z,62.70
2017-09-13T01:20:15.326Z,63.70
2017-09-13T01:22:42.845Z,64.20
2017-09-13T01:25:10.370Z,64.10
2017-09-13T01:27:37.929Z,64.40
2017-09-13T01:30:05.454Z,64.40
2017-09-13T01:32:32.982Z,64.00
2017-09-13T01:35:00.534Z,64.00
2017-09-13T01:37:28.063Z,64.30
2017-09-13T01:39:55.594Z,64.40
2017-09-13T01:42:23.918Z,64.50
2017-09-13T01:44:51.450Z,64.50
2017-09-13T01:47:18.982Z,64.20
2017-09-13T01:49:46.541Z,65.00
2017-09-13T01:52:14.076Z,64.80
2017-09-13T01:54:41.605Z,64.60
2017-09-13T01:57:09.130Z,63.90
2017-09-13T01:59:37.425Z,64.20
2017-09-13T02:02:04.974Z,64.10
2017-09-13T02:04:33.270Z,64.30
2017-09-13T02:07:00.793Z,64.30
2017-09-13T02:09:29.089Z,63.20
2017-09-13T02:11:56.618Z,63.20
2017-09-13T02:14:24.166Z,63.10
2017-09-13T02:16:51.694Z,63.50
2017-09-13T02:19:19.218Z,63.60
2017-09-13T02:21:46.747Z,63.10
2017-09-13T02:24:14.287Z,62.40
2017-09-13T02:26:41.845Z,61.30
2017-09-13T02:29:09.374Z,61.10
2017-09-13T02:31:36.900Z,61.30
2017-09-13T02:34:05.197Z,62.10
2017-09-13T02:36:32.721Z,62.00
2017-09-13T02:39:01.039Z,63.10
2017-09-13T02:41:28.561Z,63.30
2017-09-13T02:43:56.859Z,63.30
2017-09-13T02:46:24.421Z,63.30
2017-09-13T02:48:51.943Z,64.00
2017-09-13T02:51:19.494Z,64.30
2017-09-13T02:53:47.022Z,64.00
2017-09-13T02:56:14.587Z,64.10
2017-09-13T02:58:42.114Z,63.50
2017-09-13T03:01:09.639Z,63.50
2017-09-13T03:03:37.194Z,63.50
2017-09-13T03:06:04.718Z,63.20
2017-09-13T03:08:32.265Z,63.90
2017-09-13T03:10:59.786Z,63.50
2017-09-13T03:13:28.074Z,63.80
2017-09-13T03:15:55.626Z,63.80
2017-09-13T03:18:23.158Z,63.70
2017-09-13T03:20:50.682Z,63.60
2017-09-13T03:23:18.206Z,62.70
2017-09-13T03:25:45.731Z,64.00
2017-09-13T03:28:13.503Z,64.60
2017-09-13T03:30:41.020Z,63.40
2017-09-13T03:33:08.551Z,63.30
2017-09-13T03:35:36.074Z,63.30
2017-09-13T03:38:03.602Z,63.00
2017-09-13T03:40:31.162Z,63.10
2017-09-13T03:42:58.694Z,62.70
2017-09-13T03:45:26.218Z,63.50
2017-09-13T03:47:54.505Z,64.00
2017-09-13T03:50:22.794Z,63.80
2017-09-13T03:52:50.354Z,63.60
2017-09-13T03:55:17.884Z,64.00
2017-09-13T03:57:46.179Z,64.30
2017-09-13T04:00:13.712Z,64.10
2017-09-13T04:02:42.005Z,63.70
2017-09-13T04:05:10.414Z,64.20
2017-09-13T04:07:37.934Z,64.20
2017-09-13T04:10:06.223Z,65.70
2017-09-13T04:12:33.750Z,65.70
2017-09-13T04:15:01.273Z,66.20
2017-09-13T04:17:28.834Z,65.80
2017-09-13T04:19:56.355Z,66.80
2017-09-13T04:22:24.653Z,68.60
2017-09-13T04:24:52.173Z,68.60
2017-09-13T04:27:20.470Z,67.80
2017-09-13T04:29:48.027Z,67.80
2017-09-13T04:32:15.561Z,67.20
2017-09-13T04:34:43.854Z,65.80
2017-09-13T04:37:12.145Z,65.00
2017-09-13T04:39:39.671Z,65.00
2017-09-13T04:42:08.302Z,65.70
2017-09-13T04:44:35.832Z,65.60
2017-09-13T04:47:03.357Z,65.60
2017-09-13T04:49:31.658Z,63.00
2017-09-13T04:51:59.950Z,62.40
2017-09-13T04:54:27.497Z,62.30
2017-09-13T04:56:55.791Z,62.60
2017-09-13T04:59:23.314Z,62.60
2017-09-13T05:01:51.623Z,62.00
2017-09-13T05:04:19.145Z,62.00
2017-09-13T05:06:46.705Z,62.10
2017-09-13T05:09:14.225Z,62.10
2017-09-13T05:11:41.746Z,62.60
2017-09-13T05:14:09.270Z,61.90
2017-09-13T05:16:36.795Z,61.90
2017-09-13T05:19:04.358Z,61.90
2017-09-13T05:21:31.882Z,62.20
2017-09-13T05:23:59.414Z,63.20
2017-09-13T05:26:27.706Z,63.50
2017-09-13T05:28:55.994Z,62.70
2017-09-13T05:31:23.581Z,62.70
2017-09-13T05:33:51.106Z,62.30
2017-09-13T05:36:18.633Z,62.00
2017-09-13T05:38:46.166Z,61.60
2017-09-13T05:41:13.700Z,62.10
2017-09-13T05:43:41.254Z,62.40
2017-09-13T05:46:08.778Z,62.30
2017-09-13T05:48:37.097Z,62.90
2017-09-13T05:51:04.629Z,62.90
2017-09-13T05:53:32.158Z,62.20
2017-09-13T05:55:59.716Z,62.20
2017-09-13T05:58:27.237Z,62.20
2017-09-13T06:00:54.762Z,62.20
2017-09-13T06:03:22.296Z,61.80
2017-09-13T06:05:50.594Z,63.00
2017-09-13T06:08:18.192Z,62.80
2017-09-13T06:10:45.717Z,63.20
2017-09-13T06:13:13.242Z,62.90
2017-09-13T06:15:40.766Z,63.80
2017-09-13T06:18:08.290Z,63.60
2017-09-13T06:20:35.866Z,63.20
2017-09-13T06:23:03.414Z,63.30
2017-09-13T06:25:30.942Z,63.30
2017-09-13T06:27:59.246Z,63.20
2017-09-13T06:30:26.782Z,63.20
2017-09-13T06:32:55.097Z,63.40
2017-09-13T06:35:22.626Z,63.30
2017-09-13T06:37:50.917Z,62.80
2017-09-13T06:40:18.439Z,63.60
2017-09-13T06:42:45.962Z,62.80
2017-09-13T06:45:13.518Z,64.10
2017-09-13T06:47:41.038Z,63.20
2017-09-13T06:50:08.562Z,63.40
2017-09-13T06:52:36.082Z,63.30
2017-09-13T06:55:03.613Z,62.80
2017-09-13T06:57:31.162Z,62.30
2017-09-13T06:59:59.453Z,60.90
2017-09-13T07:02:26.978Z,60.80
2017-09-13T07:04:54.515Z,62.60
2017-09-13T07:07:22.850Z,62.50
2017-09-13T07:09:50.421Z,63.70
2017-09-13T07:12:18.246Z,63.60
2017-09-13T07:14:57.725Z,64.30
2017-09-13T07:17:38.576Z,64.90
2017-09-13T07:20:07.101Z,64.90
2017-09-13T07:22:34.645Z,63.80
2017-09-13T07:25:02.170Z,63.00
2017-09-13T07:27:29.727Z,62.30
2017-09-13T07:29:57.253Z,62.30
2017-09-13T07:32:24.813Z,62.20
2017-09-13T07:34:52.590Z,63.20
2017-09-13T07:37:21.058Z,62.30
2017-09-13T07:39:48.622Z,62.30
2017-09-13T07:42:16.431Z,61.10
2017-09-13T07:44:44.062Z,60.40
2017-09-13T07:47:12.577Z,59.80
2017-09-13T07:49:40.132Z,59.70
2017-09-13T07:52:07.698Z,59.70
2017-09-13T07:54:35.226Z,59.20
2017-09-13T07:57:03.867Z,58.20
2017-09-13T07:59:31.392Z,58.20
2017-09-13T08:01:59.010Z,57.60
2017-09-13T08:04:27.342Z,55.80
2017-09-13T08:06:55.210Z,55.80
2017-09-13T08:09:22.733Z,56.20
2017-09-13T08:11:50.286Z,56.40
2017-09-13T08:14:18.579Z,57.50
2017-09-13T08:16:46.102Z,56.80
2017-09-13T08:19:14.406Z,57.00
2017-09-13T08:21:41.933Z,57.60
2017-09-13T08:24:09.462Z,56.50
2017-09-13T08:26:36.995Z,57.40
2017-09-13T08:29:04.522Z,57.00
2017-09-13T08:31:32.814Z,55.90
2017-09-13T08:34:00.342Z,55.90
2017-09-13T08:36:27.882Z,55.70
2017-09-13T08:38:55.420Z,55.70
2017-09-13T08:41:22.945Z,54.30
2017-09-13T08:43:50.472Z,53.10
2017-09-13T08:46:18.018Z,53.10
2017-09-13T08:48:45.555Z,52.30
2017-09-13T08:51:13.110Z,51.90
2017-09-13T08:53:40.642Z,50.40
2017-09-13T08:56:08.165Z,49.60
2017-09-13T08:58:35.694Z,49.70
2017-09-13T09:01:03.225Z,49.10
2017-09-13T09:03:30.777Z,49.90
2017-09-13T09:05:58.316Z,50.50
2017-09-13T09:08:26.610Z,49.30
2017-09-13T09:10:54.140Z,49.30
2017-09-13T09:13:22.430Z,50.40
2017-09-13T09:15:50.756Z,49.50
2017-09-13T09:18:20.658Z,49.50
2017-09-13T09:20:48.184Z,50.40
2017-09-13T09:23:15.714Z,50.50
2017-09-13T09:25:43.262Z,50.90
2017-09-13T09:28:12.323Z,51.40
2017-09-13T09:30:39.904Z,51.30
2017-09-13T09:33:07.439Z,51.80
2017-09-13T09:35:34.974Z,51.20
2017-09-13T09:38:02.522Z,51.50
2017-09-13T09:40:30.845Z,50.40
2017-09-13T09:42:58.370Z,50.30
2017-09-13T09:45:25.898Z,50.20
2017-09-13T09:47:54.190Z,50.30
2017-09-13T09:50:22.518Z,49.20
2017-09-13T09:52:50.070Z,49.00
2017-09-13T09:55:17.609Z,49.50
2017-09-13T09:57:45.138Z,49.20
2017-09-13T10:00:13.425Z,49.40
2017-09-13T10:02:40.963Z,49.90
2017-09-13T10:05:09.753Z,48.30
2017-09-13T10:07:38.047Z,47.70
2017-09-13T10:10:05.575Z,47.70
2017-09-13T10:12:33.185Z,47.40
2017-09-13T10:15:00.730Z,47.80
2017-09-13T10:17:28.285Z,47.00
2017-09-13T10:19:55.814Z,47.60
2017-09-13T10:22:23.339Z,48.80
2017-09-13T10:24:50.876Z,48.60
2017-09-13T10:27:18.401Z,48.10
2017-09-13T10:29:46.011Z,47.30
2017-09-13T10:32:13.537Z,47.50
2017-09-13T10:34:41.065Z,48.20
2017-09-13T10:37:09.429Z,47.20
2017-09-13T10:39:36.958Z,46.60
2017-09-13T10:42:04.763Z,47.50
2017-09-13T10:44:32.289Z,48.00
2017-09-13T10:46:59.813Z,48.20
2017-09-13T10:49:27.346Z,49.40
2017-09-13T10:51:56.150Z,49.60
2017-09-13T10:54:23.710Z,49.60
2017-09-13T10:56:51.461Z,49.60
2017-09-13T10:59:19.754Z,50.10
2017-09-13T11:01:47.278Z,50.10
2017-09-13T11:04:14.801Z,50.40
2017-09-13T11:06:42.360Z,51.10
2017-09-13T11:09:09.886Z,50.70
2017-09-13T11:11:37.419Z,51.20
2017-09-13T11:14:05.714Z,51.90
2017-09-13T11:16:34.008Z,52.70
2017-09-13T11:19:01.568Z,52.60
2017-09-13T11:21:29.094Z,54.20
2017-09-13T11:23:57.386Z,54.70
2017-09-13T11:26:24.914Z,54.70
2017-09-13T11:28:52.451Z,53.40
2017-09-13T11:31:20.002Z,53.60
2017-09-13T11:33:47.525Z,53.60
2017-09-13T11:36:15.046Z,54.50
2017-09-13T11:38:42.566Z,54.10
2017-09-13T11:41:10.089Z,54.10
2017-09-13T11:43:38.510Z,54.30
2017-09-13T11:46:06.090Z,54.30
2017-09-13T11:48:33.935Z,54.50
2017-09-13T11:51:01.474Z,54.50
2017-09-13T11:53:29.118Z,53.80
2017-09-13T11:55:56.678Z,53.30
2017-09-13T11:58:24.202Z,53.40
2017-09-13T12:00:51.735Z,53.00
2017-09-13T12:03:19.258Z,52.90
2017-09-13T12:05:46.790Z,52.10
2017-09-13T12:08:15.114Z,49.30
2017-09-13T12:10:42.674Z,49.30
2017-09-13T12:13:10.230Z,49.40
2017-09-13T12:15:38.201Z,48.50
2017-09-13T12:18:05.752Z,48.40
2017-09-13T12:20:33.409Z,48.60
2017-09-13T12:23:00.977Z,48.10
2017-09-13T12:25:28.503Z,48.00
2017-09-13T12:27:56.789Z,48.90
2017-09-13T12:30:24.514Z,48.90
2017-09-13T12:32:52.130Z,48.70
2017-09-13T12:35:19.654Z,48.90
2017-09-13T12:37:47.938Z,48.40
2017-09-13T12:40:15.466Z,48.30
2017-09-13T12:42:44.498Z,48.40
2017-09-13T12:45:12.078Z,48.40
2017-09-13T12:47:39.609Z,48.90
2017-09-13T12:50:07.147Z,49.20
2017-09-13T12:52:35.439Z,50.30
2017-09-13T12:55:03.072Z,50.30
2017-09-13T12:57:30.817Z,50.20
2017-09-13T12:59:58.858Z,50.60
2017-09-13T13:02:26.635Z,51.00
2017-09-13T13:04:54.347Z,51.00
2017-09-13T13:07:22.865Z,47.70
2017-09-13T13:09:50.831Z,47.70
2017-09-13T13:12:18.698Z,46.90
2017-09-13T13:14:46.234Z,45.60
2017-09-13T13:17:13.767Z,43.30
2017-09-13T13:19:42.066Z,42.00
2017-09-13T13:22:10.778Z,41.40
2017-09-13T13:24:38.302Z,41.40
2017-09-13T13:27:06.591Z,36.60
2017-09-13T13:29:34.230Z,36.60
2017-09-13T13:32:02.526Z,35.30
2017-09-13T13:34:30.390Z,35.10
2017-09-13T13:36:58.384Z,32.90
2017-09-13T13:39:25.906Z,32.50
2017-09-13T13:41:54.590Z,33.60
2017-09-13T13:44:23.065Z,32.60
2017-09-13T13:46:51.610Z,32.40
2017-09-13T13:49:19.503Z,32.40
2017-09-13T13:51:47.805Z,30.00
2017-09-13T13:54:16.098Z,31.40
2017-09-13T13:56:43.622Z,31.50
2017-09-13T13:59:11.950Z,30.60
2017-09-13T14:01:39.478Z,30.00
2017-09-13T14:04:07.019Z,30.60
2017-09-13T14:06:35.326Z,29.40
2017-09-13T14:09:02.863Z,29.40
2017-09-13T14:11:31.178Z,30.50
2017-09-13T14:13:58.705Z,30.50
2017-09-13T14:16:26.233Z,30.80
2017-09-13T14:18:53.762Z,31.10
2017-09-13T14:21:21.290Z,30.90
2017-09-13T14:23:48.850Z,30.00
2017-09-13T14:26:16.386Z,30.30
2017-09-13T14:28:44.682Z,30.00
2017-09-13T14:31:12.223Z,30.00
2017-09-13T14:33:40.521Z,32.00
2017-09-13T14:36:08.073Z,32.70
2017-09-13T14:38:35.649Z,31.60
2017-09-13T14:41:03.174Z,30.90
2017-09-13T14:43:31.461Z,32.20
2017-09-13T14:45:59.753Z,35.90
2017-09-13T14:48:27.310Z,35.90
2017-09-13T14:50:54.843Z,37.20
2017-09-13T14:53:23.143Z,38.40
2017-09-13T14:55:50.671Z,38.40
2017-09-13T14:58:18.966Z,40.80
2017-09-13T15:00:46.548Z,40.70
2017-09-13T15:03:14.086Z,39.80
2017-09-13T15:05:41.616Z,38.80
2017-09-13T15:08:09.155Z,38.20
2017-09-13T15:10:36.707Z,37.50
2017-09-13T15:13:04.257Z,39.30
2017-09-13T15:15:31.777Z,38.30
2017-09-13T15:17:59.586Z,39.40
2017-09-13T15:20:27.122Z,40.40
2017-09-13T15:22:54.805Z,41.10
2017-09-13T15:25:23.354Z,45.40
2017-09-13T15:27:51.208Z,44.80
2017-09-13T15:30:19.794Z,47.50
2017-09-13T15:32:47.783Z,47.40
2017-09-13T15:35:15.318Z,48.90
2017-09-13T15:37:42.882Z,50.20
2017-09-13T15:40:10.468Z,50.70
2017-09-13T15:42:38.069Z,51.10
2017-09-13T15:45:05.590Z,51.00
2017-09-13T15:47:33.119Z,51.80
2017-09-13T15:50:00.954Z,52.20
2017-09-13T15:52:28.586Z,52.10
2017-09-13T15:54:56.115Z,52.00
2017-09-13T15:57:23.642Z,52.20
2017-09-13T15:59:51.945Z,52.10
2017-09-13T16:02:20.589Z,52.10
2017-09-13T16:04:48.114Z,52.00
2017-09-13T16:07:15.647Z,52.50
2017-09-13T16:09:43.318Z,52.40
2017-09-13T16:12:11.977Z,52.30
2017-09-13T16:14:40.366Z,53.40
2017-09-13T16:17:08.041Z,53.40
2017-09-13T16:19:35.601Z,53.20
2017-09-13T16:22:03.130Z,53.20
2017-09-13T16:24:31.417Z,53.50
2017-09-13T16:26:58.973Z,53.50
2017-09-13T16:29:26.507Z,54.00
2017-09-13T16:31:54.802Z,53.90
2017-09-13T16:34:22.338Z,53.90
2017-09-13T16:36:49.865Z,53.90
2017-09-13T16:39:17.458Z,53.70
2017-09-13T16:41:45.758Z,54.20
2017-09-13T16:44:14.183Z,54.20
2017-09-13T16:46:41.716Z,54.30
2017-09-13T16:49:09.242Z,53.90
2017-09-13T16:51:37.559Z,53.30
2017-09-13T16:54:05.085Z,53.30
2017-09-13T16:56:33.374Z,54.30
2017-09-13T16:59:01.985Z,54.30
2017-09-13T17:01:30.431Z,54.80
2017-09-13T17:03:58.191Z,54.80
2017-09-13T17:06:25.733Z,55.10
2017-09-13T17:08:54.022Z,55.20
2017-09-13T17:11:22.314Z,55.20
2017-09-13T17:13:49.842Z,55.20
2017-09-13T17:16:18.162Z,55.40
2017-09-13T17:18:45.698Z,55.30
2017-09-13T17:21:13.234Z,55.30
2017-09-13T17:23:41.554Z,55.10
2017-09-13T17:26:09.091Z,55.10
2017-09-13T17:28:36.642Z,55.30
2017-09-13T17:31:05.074Z,55.80
2017-09-13T17:33:32.733Z,55.70
2017-09-13T17:36:00.282Z,55.90
2017-09-13T17:38:27.806Z,55.80
2017-09-13T17:40:55.709Z,55.80
2017-09-13T17:43:23.233Z,55.60
2017-09-13T17:45:51.066Z,55.80
2017-09-13T17:48:18.804Z,55.70
2017-09-13T17:50:46.423Z,55.80
2017-09-13T17:53:14.104Z,55.70
2017-09-13T17:55:41.729Z,55.90
2017-09-13T17:58:09.270Z,55.50
2017-09-13T18:00:37.229Z,55.90
2017-09-13T18:03:04.754Z,56.10
2017-09-13T18:05:32.315Z,56.10
2017-09-13T18:08:00.267Z,55.80
2017-09-13T18:10:28.310Z,55.80
2017-09-13T18:12:56.822Z,55.70
2017-09-13T18:15:24.989Z,55.70
2017-09-13T18:17:52.542Z,56.00
2017-09-13T18:20:20.066Z,56.20
2017-09-13T18:22:48.362Z,56.30
2017-09-13T18:25:16.670Z,56.10
2017-09-13T18:27:44.202Z,55.90
2017-09-13T18:30:11.769Z,55.70
2017-09-13T18:32:39.328Z,55.40
2017-09-13T18:35:06.853Z,55.20
2017-09-13T18:37:35.158Z,55.30
2017-09-13T18:40:02.683Z,55.30
2017-09-13T18:42:31.010Z,55.60
2017-09-13T18:44:58.551Z,55.50
2017-09-13T18:47:26.090Z,55.60
2017-09-13T18:49:54.435Z,56.80
2017-09-13T18:52:21.974Z,56.70
2017-09-13T18:54:49.522Z,56.70
2017-09-13T18:57:17.046Z,57.00
2017-09-13T18:59:45.344Z,57.20
2017-09-13T19:02:12.875Z,57.20
2017-09-13T19:04:41.477Z,57.40
2017-09-13T19:07:09.030Z,57.40
2017-09-13T19:09:36.557Z,57.30
2017-09-13T19:12:04.081Z,56.80
2017-09-13T19:14:31.611Z,56.60
2017-09-13T19:16:59.153Z,56.30
2017-09-13T19:19:27.481Z,56.30
2017-09-13T19:21:55.006Z,56.20
2017-09-13T19:24:22.526Z,57.10
2017-09-13T19:26:50.046Z,57.50
2017-09-13T19:29:17.574Z,57.80
2017-09-13T19:31:45.132Z,57.40
2017-09-13T19:34:12.682Z,57.80
2017-09-13T19:36:40.973Z,56.80
2017-09-13T19:39:08.494Z,56.70
2017-09-13T19:41:36.018Z,56.80
2017-09-13T19:44:03.546Z,56.80
2017-09-13T19:46:31.082Z,56.80
2017-09-13T19:48:59.399Z,56.30
2017-09-13T19:51:26.928Z,56.30
2017-09-13T19:53:55.214Z,56.70
2017-09-13T19:56:22.746Z,56.60
2017-09-13T19:58:51.045Z,57.20
2017-09-13T20:01:18.598Z,57.20
2017-09-13T20:03:46.899Z,57.30
2017-09-13T20:06:14.431Z,57.30
2017-09-13T20:08:42.740Z,56.80
2017-09-13T20:11:10.321Z,56.80
2017-09-13T20:13:37.871Z,57.30
2017-09-13T20:16:05.398Z,57.00
2017-09-13T20:18:32.922Z,56.60
2017-09-13T20:21:01.222Z,57.10
2017-09-13T20:23:28.749Z,57.00
2017-09-13T20:25:56.302Z,56.70
2017-09-13T20:28:24.590Z,57.30
2017-09-13T20:30:52.891Z,57.40
2017-09-13T20:33:20.419Z,57.10
2017-09-13T20:35:47.942Z,57.70
2017-09-13T20:38:15.512Z,57.80
2017-09-13T20:40:43.038Z,57.60
2017-09-13T20:43:10.581Z,58.00
2017-09-13T20:45:38.112Z,58.00
2017-09-13T20:48:05.641Z,57.60
2017-09-13T20:50:33.194Z,57.60
2017-09-13T20:53:00.721Z,56.30
2017-09-13T20:55:28.243Z,56.30
2017-09-13T20:57:55.773Z,56.60
2017-09-13T21:00:23.310Z,56.20
2017-09-13T21:02:50.941Z,56.30
2017-09-13T21:05:19.231Z,57.40
2017-09-13T21:07:46.771Z,57.40
2017-09-13T21:10:15.075Z,58.60
2017-09-13T21:12:42.594Z,58.50
2017-09-13T21:15:10.913Z,58.10
2017-09-13T21:17:38.440Z,58.00
2017-09-13T21:20:06.734Z,57.20
2017-09-13T21:22:34.265Z,57.20
2017-09-13T21:25:02.558Z,57.40
2017-09-13T21:27:30.873Z,58.10
2017-09-13T21:29:58.422Z,58.10
2017-09-13T21:32:25.946Z,58.40
2017-09-13T21:34:54.250Z,58.40
2017-09-13T21:37:21.799Z,58.40
2017-09-13T21:39:49.350Z,58.70
2017-09-13T21:42:16.881Z,58.70
2017-09-13T21:44:44.404Z,58.40
2017-09-13T21:47:11.930Z,58.90
2017-09-13T21:49:39.467Z,57.90
2017-09-13T21:52:07.790Z,58.00
2017-09-13T21:54:35.316Z,58.00
2017-09-13T21:57:02.862Z,58.40
2017-09-13T21:59:31.156Z,58.80
2017-09-13T22:01:58.685Z,58.70
2017-09-13T22:04:27.003Z,59.10
2017-09-13T22:06:54.540Z,59.00
2017-09-13T22:09:22.070Z,59.40
2017-09-13T22:11:49.594Z,59.60
2017-09-13T22:14:17.124Z,59.90
2017-09-13T22:16:44.738Z,60.40
2017-09-13T22:19:12.266Z,61.00
2017-09-13T22:21:39.789Z,61.40
2017-09-13T22:24:08.073Z,61.40
2017-09-13T22:26:35.593Z,61.40
2017-09-13T22:29:03.142Z,62.00
2017-09-13T22:31:30.665Z,62.40
2017-09-13T22:33:58.206Z,62.90
2017-09-13T22:36:25.746Z,63.70
2017-09-13T22:38:54.038Z,64.50
2017-09-13T22:41:21.595Z,64.40
2017-09-13T22:43:49.126Z,64.70
2017-09-13T22:46:17.422Z,65.00
2017-09-13T22:48:45.709Z,64.40
2017-09-13T22:51:13.230Z,64.40
2017-09-13T22:53:40.786Z,65.20
2017-09-13T22:56:08.309Z,65.60
2017-09-13T22:58:35.831Z,65.90
2017-09-13T23:01:04.117Z,66.70
2017-09-13T23:03:31.642Z,66.70
2017-09-13T23:05:59.194Z,67.40
2017-09-13T23:08:26.721Z,67.80
2017-09-13T23:10:54.263Z,68.30
2017-09-13T23:13:21.790Z,68.20
2017-09-13T23:15:50.082Z,68.90
2017-09-13T23:18:17.633Z,68.80
2017-09-13T23:20:45.922Z,67.70
2017-09-13T23:23:13.441Z,67.70
2017-09-13T23:25:40.967Z,67.20
2017-09-13T23:28:08.490Z,68.40
2017-09-13T23:30:36.047Z,68.00
2017-09-13T23:33:03.574Z,67.80
2017-09-13T23:35:31.102Z,67.50
2017-09-13T23:37:58.621Z,67.80
2017-09-13T23:40:26.146Z,67.60
2017-09-13T23:42:53.718Z,67.10
2017-09-13T23:45:22.011Z,67.40
2017-09-13T23:47:49.537Z,67.30
2017-09-13T23:50:17.095Z,68.00
2017-09-13T23:52:44.621Z,68.10
2017-09-13T23:55:12.169Z,68.40
2017-09-13T23:57:39.698Z,68.70
